sensor_id;sensor_type;location;lat;lon;timestamp;pressure;altitude;pressure_sealevel;temperature;humidity
70521;BME280;58442;52.716;23.560;2023-04-27T00:00:39;101213.28;;;6.42;64.48
70521;BME280;58442;52.716;23.560;2023-04-27T00:02:45;101216.88;;;6.37;64.55
70521;BME280;58442;52.716;23.560;2023-04-27T00:04:47;101221.31;;;6.33;64.58
70521;BME280;58442;52.716;23.560;2023-04-27T00:06:52;101221.44;;;6.28;64.63
70521;BME280;58442;52.716;23.560;2023-04-27T00:08:54;101222.34;;;6.23;64.74
70521;BME280;58442;52.716;23.560;2023-04-27T00:10:56;101223.27;;;6.19;64.77
70521;BME280;58442;52.716;23.560;2023-04-27T00:12:58;101221.79;;;6.13;64.89
70521;BME280;58442;52.716;23.560;2023-04-27T00:15:08;101223.80;;;6.07;64.91
70521;BME280;58442;52.716;23.560;2023-04-27T00:17:10;101224.71;;;6.02;64.99
70521;BME280;58442;52.716;23.560;2023-04-27T00:19:11;101224.22;;;6.00;64.99
70521;BME280;58442;52.716;23.560;2023-04-27T00:21:15;101222.42;;;5.96;64.96
70521;BME280;58442;52.716;23.560;2023-04-27T00:23:22;101226.05;;;5.91;64.97
70521;BME280;58442;52.716;23.560;2023-04-27T00:25:23;101241.21;;;5.87;65.04
70521;BME280;58442;52.716;23.560;2023-04-27T00:27:25;101237.52;;;5.83;65.09
70521;BME280;58442;52.716;23.560;2023-04-27T00:29:27;101237.12;;;5.76;65.12
70521;BME280;58442;52.716;23.560;2023-04-27T00:31:37;101230.27;;;5.70;65.16
70521;BME280;58442;52.716;23.560;2023-04-27T00:33:38;101233.06;;;5.65;65.30
70521;BME280;58442;52.716;23.560;2023-04-27T00:35:40;101236.65;;;5.60;65.40
70521;BME280;58442;52.716;23.560;2023-04-27T00:37:41;101241.86;;;5.57;65.45
70521;BME280;58442;52.716;23.560;2023-04-27T00:39:52;101237.84;;;5.54;65.46
70521;BME280;58442;52.716;23.560;2023-04-27T00:41:53;101231.48;;;5.50;65.55
70521;BME280;58442;52.716;23.560;2023-04-27T00:43:55;101241.26;;;5.46;65.64
70521;BME280;58442;52.716;23.560;2023-04-27T00:45:56;101239.16;;;5.43;65.66
70521;BME280;58442;52.716;23.560;2023-04-27T00:48:07;101235.77;;;5.37;65.72
70521;BME280;58442;52.716;23.560;2023-04-27T00:50:09;101233.97;;;5.33;65.85
70521;BME280;58442;52.716;23.560;2023-04-27T00:52:11;101234.86;;;5.28;65.98
70521;BME280;58442;52.716;23.560;2023-04-27T00:54:19;101236.56;;;5.24;66.08
70521;BME280;58442;52.716;23.560;2023-04-27T00:56:22;101237.45;;;5.19;66.15
70521;BME280;58442;52.716;23.560;2023-04-27T00:58:24;101241.55;;;5.17;66.27
70521;BME280;58442;52.716;23.560;2023-04-27T01:00:26;101237.05;;;5.12;66.34
70521;BME280;58442;52.716;23.560;2023-04-27T01:02:28;101252.41;;;5.12;66.32
70521;BME280;58442;52.716;23.560;2023-04-27T01:04:37;101239.55;;;5.09;66.31
70521;BME280;58442;52.716;23.560;2023-04-27T01:06:38;101251.70;;;5.06;66.42
70521;BME280;58442;52.716;23.560;2023-04-27T01:08:40;101249.93;;;5.02;66.54
70521;BME280;58442;52.716;23.560;2023-04-27T01:10:42;101252.70;;;4.97;66.57
70521;BME280;58442;52.716;23.560;2023-04-27T01:12:52;101257.60;;;4.94;66.69
70521;BME280;58442;52.716;23.560;2023-04-27T01:14:53;101255.96;;;4.93;66.70
70521;BME280;58442;52.716;23.560;2023-04-27T01:16:55;101254.37;;;4.92;66.66
70521;BME280;58442;52.716;23.560;2023-04-27T01:18:56;101248.19;;;4.92;66.60
70521;BME280;58442;52.716;23.560;2023-04-27T01:21:07;101258.16;;;4.91;66.60
70521;BME280;58442;52.716;23.560;2023-04-27T01:23:12;101254.98;;;4.89;66.58
70521;BME280;58442;52.716;23.560;2023-04-27T01:25:14;101257.98;;;4.88;66.57
70521;BME280;58442;52.716;23.560;2023-04-27T01:27:15;101253.47;;;4.83;66.56
70521;BME280;58442;52.716;23.560;2023-04-27T01:29:22;101254.04;;;4.80;66.63
70521;BME280;58442;52.716;23.560;2023-04-27T01:31:23;101256.23;;;4.78;66.68
70521;BME280;58442;52.716;23.560;2023-04-27T01:33:24;101258.74;;;4.75;66.73
70521;BME280;58442;52.716;23.560;2023-04-27T01:35:26;101260.63;;;4.74;66.74
70521;BME280;58442;52.716;23.560;2023-04-27T01:37:37;101253.13;;;4.71;66.74
70521;BME280;58442;52.716;23.560;2023-04-27T01:39:38;101254.00;;;4.66;66.85
70521;BME280;58442;52.716;23.560;2023-04-27T01:41:39;101256.99;;;4.65;66.89
70521;BME280;58442;52.716;23.560;2023-04-27T01:43:41;101252.22;;;4.62;66.95
70521;BME280;58442;52.716;23.560;2023-04-27T01:45:52;101260.85;;;4.59;67.04
70521;BME280;58442;52.716;23.560;2023-04-27T01:47:53;101254.98;;;4.57;67.09
70521;BME280;58442;52.716;23.560;2023-04-27T01:49:55;101263.66;;;4.54;67.13
70521;BME280;58442;52.716;23.560;2023-04-27T01:51:57;101260.44;;;4.52;67.13
70521;BME280;58442;52.716;23.560;2023-04-27T01:54:07;101257.55;;;4.48;67.20
70521;BME280;58442;52.716;23.560;2023-04-27T01:56:08;101259.21;;;4.44;67.31
70521;BME280;58442;52.716;23.560;2023-04-27T01:58:10;101264.89;;;4.43;67.33
70521;BME280;58442;52.716;23.560;2023-04-27T02:00:12;101267.88;;;4.41;67.36
70521;BME280;58442;52.716;23.560;2023-04-27T02:02:22;101260.61;;;4.42;67.35
70521;BME280;58442;52.716;23.560;2023-04-27T02:04:23;101272.17;;;4.42;67.36
70521;BME280;58442;52.716;23.560;2023-04-27T02:06:25;101273.27;;;4.41;67.41
70521;BME280;58442;52.716;23.560;2023-04-27T02:08:27;101278.65;;;4.41;67.41
70521;BME280;58442;52.716;23.560;2023-04-27T02:10:37;101279.75;;;4.40;67.52
70521;BME280;58442;52.716;23.560;2023-04-27T02:12:38;101274.06;;;4.42;67.62
70521;BME280;58442;52.716;23.560;2023-04-27T02:14:39;101271.37;;;4.42;67.69
70521;BME280;58442;52.716;23.560;2023-04-27T02:16:41;101278.35;;;4.43;67.67
70521;BME280;58442;52.716;23.560;2023-04-27T02:18:52;101274.85;;;4.42;67.77
70521;BME280;58442;52.716;23.560;2023-04-27T02:20:54;101279.95;;;4.44;67.88
70521;BME280;58442;52.716;23.560;2023-04-27T02:22:56;101279.65;;;4.45;67.93
70521;BME280;58442;52.716;23.560;2023-04-27T02:24:58;101277.75;;;4.46;67.93
70521;BME280;58442;52.716;23.560;2023-04-27T02:27:07;101272.36;;;4.46;68.04
70521;BME280;58442;52.716;23.560;2023-04-27T02:29:08;101274.49;;;4.49;68.06
70521;BME280;58442;52.716;23.560;2023-04-27T02:31:10;101282.56;;;4.49;68.05
70521;BME280;58442;52.716;23.560;2023-04-27T02:33:11;101276.09;;;4.50;68.04
70521;BME280;58442;52.716;23.560;2023-04-27T02:35:22;101271.50;;;4.50;68.08
70521;BME280;58442;52.716;23.560;2023-04-27T02:37:23;101278.28;;;4.48;68.12
70521;BME280;58442;52.716;23.560;2023-04-27T02:39:24;101274.79;;;4.47;68.07
70521;BME280;58442;52.716;23.560;2023-04-27T02:41:29;101284.75;;;4.47;68.03
70521;BME280;58442;52.716;23.560;2023-04-27T02:43:37;101284.22;;;4.45;68.07
70521;BME280;58442;52.716;23.560;2023-04-27T02:45:38;101280.73;;;4.44;68.14
70521;BME280;58442;52.716;23.560;2023-04-27T02:47:40;101277.55;;;4.42;68.14
70521;BME280;58442;52.716;23.560;2023-04-27T02:49:41;101287.02;;;4.39;68.12
70521;BME280;58442;52.716;23.560;2023-04-27T02:51:52;101283.30;;;4.35;68.23
70521;BME280;58442;52.716;23.560;2023-04-27T02:53:53;101290.08;;;4.33;68.36
70521;BME280;58442;52.716;23.560;2023-04-27T02:55:54;101286.06;;;4.30;68.39
70521;BME280;58442;52.716;23.560;2023-04-27T02:57:58;101292.83;;;4.28;68.37
70521;BME280;58442;52.716;23.560;2023-04-27T03:00:07;101292.03;;;4.27;68.36
70521;BME280;58442;52.716;23.560;2023-04-27T03:02:10;101291.80;;;4.24;68.43
70521;BME280;58442;52.716;23.560;2023-04-27T03:04:13;101292.95;;;4.18;68.50
70521;BME280;58442;52.716;23.560;2023-04-27T03:06:14;101293.27;;;4.16;68.52
70521;BME280;58442;52.716;23.560;2023-04-27T03:08:22;101293.05;;;4.13;68.55
70521;BME280;58442;52.716;23.560;2023-04-27T03:10:23;101289.83;;;4.10;68.59
70521;BME280;58442;52.716;23.560;2023-04-27T03:12:24;101290.92;;;4.09;68.59
70521;BME280;58442;52.716;23.560;2023-04-27T03:14:26;101294.70;;;4.08;68.57
70521;BME280;58442;52.716;23.560;2023-04-27T03:16:37;101295.01;;;4.07;68.52
70521;BME280;58442;52.716;23.560;2023-04-27T03:18:38;101289.13;;;4.05;68.57
70521;BME280;58442;52.716;23.560;2023-04-27T03:20:40;101298.26;;;4.04;68.54
70521;BME280;58442;52.716;23.560;2023-04-27T03:22:42;101299.34;;;4.03;68.51
70521;BME280;58442;52.716;23.560;2023-04-27T03:24:52;101305.02;;;4.01;68.53
70521;BME280;58442;52.716;23.560;2023-04-27T03:26:53;101301.03;;;3.99;68.56
70521;BME280;58442;52.716;23.560;2023-04-27T03:28:54;101297.55;;;3.98;68.55
70521;BME280;58442;52.716;23.560;2023-04-27T03:30:56;101301.59;;;3.96;68.58
70521;BME280;58442;52.716;23.560;2023-04-27T03:33:07;101298.40;;;3.94;68.55
70521;BME280;58442;52.716;23.560;2023-04-27T03:35:08;101309.16;;;3.94;68.58
70521;BME280;58442;52.716;23.560;2023-04-27T03:37:10;101307.85;;;3.91;68.59
70521;BME280;58442;52.716;23.560;2023-04-27T03:39:11;101308.13;;;3.90;68.57
70521;BME280;58442;52.716;23.560;2023-04-27T03:41:22;101304.93;;;3.88;68.50
70521;BME280;58442;52.716;23.560;2023-04-27T03:43:24;101309.50;;;3.87;68.59
70521;BME280;58442;52.716;23.560;2023-04-27T03:45:25;101314.09;;;3.87;68.58
70521;BME280;58442;52.716;23.560;2023-04-27T03:47:27;101310.59;;;3.86;68.59
70521;BME280;58442;52.716;23.560;2023-04-27T03:49:37;101317.07;;;3.85;68.64
70521;BME280;58442;52.716;23.560;2023-04-27T03:51:38;101322.71;;;3.83;68.64
70521;BME280;58442;52.716;23.560;2023-04-27T03:53:42;101322.20;;;3.81;68.67
70521;BME280;58442;52.716;23.560;2023-04-27T03:55:44;101317.92;;;3.80;68.68
70521;BME280;58442;52.716;23.560;2023-04-27T03:57:52;101330.86;;;3.78;68.74
70521;BME280;58442;52.716;23.560;2023-04-27T03:59:53;101325.48;;;3.78;68.84
70521;BME280;58442;52.716;23.560;2023-04-27T04:01:54;101331.13;;;3.77;68.93
70521;BME280;58442;52.716;23.560;2023-04-27T04:03:57;101329.53;;;3.76;68.94
70521;BME280;58442;52.716;23.560;2023-04-27T04:06:07;101330.06;;;3.78;68.96
70521;BME280;58442;52.716;23.560;2023-04-27T04:08:08;101331.13;;;3.77;68.96
70521;BME280;58442;52.716;23.560;2023-04-27T04:10:10;101337.59;;;3.76;69.03
70521;BME280;58442;52.716;23.560;2023-04-27T04:12:12;101334.10;;;3.75;69.06
70521;BME280;58442;52.716;23.560;2023-04-27T04:14:22;101335.70;;;3.76;69.13
70521;BME280;58442;52.716;23.560;2023-04-27T04:16:23;101338.93;;;3.78;69.12
70521;BME280;58442;52.716;23.560;2023-04-27T04:18:25;101341.32;;;3.80;69.05
70521;BME280;58442;52.716;23.560;2023-04-27T04:20:26;101342.91;;;3.81;68.99
70521;BME280;58442;52.716;23.560;2023-04-27T04:22:37;101339.94;;;3.82;68.95
70521;BME280;58442;52.716;23.560;2023-04-27T04:24:39;101340.73;;;3.83;68.92
70521;BME280;58442;52.716;23.560;2023-04-27T04:26:41;101348.00;;;3.82;68.99
70521;BME280;58442;52.716;23.560;2023-04-27T04:28:42;101339.94;;;3.82;68.95
70521;BME280;58442;52.716;23.560;2023-04-27T04:30:52;101348.00;;;3.82;68.95
70521;BME280;58442;52.716;23.560;2023-04-27T04:32:53;101353.91;;;3.84;69.01
70521;BME280;58442;52.716;23.560;2023-04-27T04:34:55;101348.53;;;3.84;69.01
70521;BME280;58442;52.716;23.560;2023-04-27T04:36:56;101347.45;;;3.86;69.04
70521;BME280;58442;52.716;23.560;2023-04-27T04:39:07;101357.90;;;3.87;69.02
70521;BME280;58442;52.716;23.560;2023-04-27T04:41:08;101351.13;;;3.90;69.07
70521;BME280;58442;52.716;23.560;2023-04-27T04:43:10;101352.48;;;3.92;69.07
70521;BME280;58442;52.716;23.560;2023-04-27T04:45:12;101357.27;;;3.95;69.02
70521;BME280;58442;52.716;23.560;2023-04-27T04:47:22;101355.62;;;3.99;69.01
70521;BME280;58442;52.716;23.560;2023-04-27T04:49:23;101351.53;;;4.02;69.00
70521;BME280;58442;52.716;23.560;2023-04-27T04:51:25;101357.42;;;4.04;68.99
70521;BME280;58442;52.716;23.560;2023-04-27T04:53:27;101350.69;;;4.06;68.96
70521;BME280;58442;52.716;23.560;2023-04-27T04:55:37;101360.06;;;4.09;69.04
70521;BME280;58442;52.716;23.560;2023-04-27T04:57:38;101354.12;;;4.12;69.11
70521;BME280;58442;52.716;23.560;2023-04-27T04:59:40;101356.73;;;4.17;69.12
70521;BME280;58442;52.716;23.560;2023-04-27T05:01:42;101363.64;;;4.23;69.08
70521;BME280;58442;52.716;23.560;2023-04-27T05:03:52;101366.27;;;4.28;69.06
70521;BME280;58442;52.716;23.560;2023-04-27T05:05:53;101372.40;;;4.34;69.03
70521;BME280;58442;52.716;23.560;2023-04-27T05:07:55;101368.02;;;4.38;68.96
70521;BME280;58442;52.716;23.560;2023-04-27T05:09:57;101366.06;;;4.44;68.91
70521;BME280;58442;52.716;23.560;2023-04-27T05:12:07;101362.51;;;4.48;68.83
70521;BME280;58442;52.716;23.560;2023-04-27T05:14:08;101373.72;;;4.55;68.75
70521;BME280;58442;52.716;23.560;2023-04-27T05:16:10;101367.47;;;4.60;68.66
70521;BME280;58442;52.716;23.560;2023-04-27T05:18:11;101368.97;;;4.66;68.56
70521;BME280;58442;52.716;23.560;2023-04-27T05:20:22;101377.78;;;4.72;68.40
70521;BME280;58442;52.716;23.560;2023-04-27T05:22:23;101380.70;;;4.75;68.31
70521;BME280;58442;52.716;23.560;2023-04-27T05:24:25;101387.88;;;4.80;68.21
70521;BME280;58442;52.716;23.560;2023-04-27T05:26:26;101383.75;;;4.87;68.11
70521;BME280;58442;52.716;23.560;2023-04-27T05:28:37;101379.06;;;4.93;67.98
70521;BME280;58442;52.716;23.560;2023-04-27T05:30:38;101380.89;;;4.98;67.87
70521;BME280;58442;52.716;23.560;2023-04-27T05:32:39;101391.30;;;5.04;67.78
70521;BME280;58442;52.716;23.560;2023-04-27T05:34:41;101390.41;;;5.09;67.64
70521;BME280;58442;52.716;23.560;2023-04-27T05:36:52;101390.32;;;5.14;67.49
70521;BME280;58442;52.716;23.560;2023-04-27T05:38:54;101394.84;;;5.18;67.35
70521;BME280;58442;52.716;23.560;2023-04-27T05:40:56;101400.15;;;5.24;67.24
70521;BME280;58442;52.716;23.560;2023-04-27T05:42:58;101395.48;;;5.29;67.16
70521;BME280;58442;52.716;23.560;2023-04-27T05:45:07;101399.70;;;5.35;67.05
70521;BME280;58442;52.716;23.560;2023-04-27T05:47:09;101394.19;;;5.40;66.96
70521;BME280;58442;52.716;23.560;2023-04-27T05:49:11;101399.99;;;5.47;66.83
70521;BME280;58442;52.716;23.560;2023-04-27T05:51:12;101408.50;;;5.55;66.74
70521;BME280;58442;52.716;23.560;2023-04-27T05:53:22;101403.82;;;5.60;66.54
70521;BME280;58442;52.716;23.560;2023-04-27T05:55:23;101407.84;;;5.63;66.46
70521;BME280;58442;52.716;23.560;2023-04-27T05:57:25;101407.73;;;5.68;66.39
70521;BME280;58442;52.716;23.560;2023-04-27T05:59:26;101410.03;;;5.74;66.32
70521;BME280;58442;52.716;23.560;2023-04-27T06:01:37;101406.94;;;5.81;66.20
70521;BME280;58442;52.716;23.560;2023-04-27T06:03:39;101412.26;;;5.86;66.10
70521;BME280;58442;52.716;23.560;2023-04-27T06:05:40;101421.08;;;5.92;66.02
70521;BME280;58442;52.716;23.560;2023-04-27T06:07:42;101418.27;;;5.97;65.87
70521;BME280;58442;52.716;23.560;2023-04-27T06:09:52;101410.39;;;6.00;65.77
70521;BME280;58442;52.716;23.560;2023-04-27T06:11:53;101406.01;;;6.05;65.68
70521;BME280;58442;52.716;23.560;2023-04-27T06:13:54;101412.38;;;6.09;65.64
70521;BME280;58442;52.716;23.560;2023-04-27T06:15:56;101405.79;;;6.15;65.54
70521;BME280;58442;52.716;23.560;2023-04-27T06:18:06;101412.68;;;6.21;65.47
70521;BME280;58442;52.716;23.560;2023-04-27T06:20:08;101413.88;;;6.28;65.32
70521;BME280;58442;52.716;23.560;2023-04-27T06:22:09;101420.77;;;6.35;65.16
70521;BME280;58442;52.716;23.560;2023-04-27T06:24:11;101423.06;;;6.41;65.11
70521;BME280;58442;52.716;23.560;2023-04-27T06:26:21;101424.26;;;6.49;64.99
70521;BME280;58442;52.716;23.560;2023-04-27T06:28:23;101417.02;;;6.58;64.80
70521;BME280;58442;52.716;23.560;2023-04-27T06:30:24;101422.01;;;6.65;64.65
70521;BME280;58442;52.716;23.560;2023-04-27T06:32:26;101416.72;;;6.73;64.52
70521;BME280;58442;52.716;23.560;2023-04-27T06:34:36;101409.16;;;6.84;64.40
70521;BME280;58442;52.716;23.560;2023-04-27T06:36:38;101420.86;;;6.93;64.23
70521;BME280;58442;52.716;23.560;2023-04-27T06:38:39;101425.52;;;7.01;64.15
70521;BME280;58442;52.716;23.560;2023-04-27T06:40:41;101424.48;;;7.11;63.91
70521;BME280;58442;52.716;23.560;2023-04-27T06:42:51;101422.34;;;7.22;63.75
70521;BME280;58442;52.716;23.560;2023-04-27T06:44:53;101425.89;;;7.31;63.63
70521;BME280;58442;52.716;23.560;2023-04-27T06:46:56;101428.84;;;7.43;63.44
70521;BME280;58442;52.716;23.560;2023-04-27T06:48:57;101428.89;;;7.52;63.20
70521;BME280;58442;52.716;23.560;2023-04-27T06:51:06;101425.12;;;7.61;62.99
70521;BME280;58442;52.716;23.560;2023-04-27T06:53:08;101436.80;;;7.71;62.85
70521;BME280;58442;52.716;23.560;2023-04-27T06:55:10;101424.89;;;7.80;62.69
70521;BME280;58442;52.716;23.560;2023-04-27T06:57:11;101426.23;;;7.91;62.61
70521;BME280;58442;52.716;23.560;2023-04-27T06:59:21;101427.05;;;8.01;62.44
70521;BME280;58442;52.716;23.560;2023-04-27T07:01:23;101434.12;;;8.10;62.20
70521;BME280;58442;52.716;23.560;2023-04-27T07:03:24;101428.40;;;8.20;61.99
70521;BME280;58442;52.716;23.560;2023-04-27T07:05:26;101435.76;;;8.29;61.84
70521;BME280;58442;52.716;23.560;2023-04-27T07:07:36;101440.91;;;8.39;61.60
70521;BME280;58442;52.716;23.560;2023-04-27T07:09:37;101439.82;;;8.48;61.38
70521;BME280;58442;52.716;23.560;2023-04-27T07:11:39;101445.24;;;8.57;61.11
70521;BME280;58442;52.716;23.560;2023-04-27T07:13:41;101437.95;;;8.66;60.99
70521;BME280;58442;52.716;23.560;2023-04-27T07:15:55;101443.04;;;8.76;60.67
70521;BME280;58442;52.716;23.560;2023-04-27T07:18:01;101431.41;;;8.85;60.44
70521;BME280;58442;52.716;23.560;2023-04-27T07:20:03;101434.95;;;8.94;60.27
70521;BME280;58442;52.716;23.560;2023-04-27T07:22:06;101438.44;;;9.03;60.06
70521;BME280;58442;52.716;23.560;2023-04-27T07:24:08;101440.34;;;9.11;60.00
70521;BME280;58442;52.716;23.560;2023-04-27T07:26:09;101444.34;;;9.22;59.77
70521;BME280;58442;52.716;23.560;2023-04-27T07:28:11;101442.57;;;9.35;59.61
70521;BME280;58442;52.716;23.560;2023-04-27T07:30:13;101445.73;;;9.46;59.21
70521;BME280;58442;52.716;23.560;2023-04-27T07:32:21;101450.04;;;9.55;59.06
70521;BME280;58442;52.716;23.560;2023-04-27T07:34:23;101445.71;;;9.63;58.78
70521;BME280;58442;52.716;23.560;2023-04-27T07:36:24;101447.27;;;9.73;58.38
70521;BME280;58442;52.716;23.560;2023-04-27T07:38:27;101451.87;;;9.81;58.28
70521;BME280;58442;52.716;23.560;2023-04-27T07:40:36;101446.11;;;9.91;57.86
70521;BME280;58442;52.716;23.560;2023-04-27T07:42:37;101447.52;;;9.97;57.68
70521;BME280;58442;52.716;23.560;2023-04-27T07:44:41;101438.99;;;10.07;57.45
70521;BME280;58442;52.716;23.560;2023-04-27T07:46:43;101444.87;;;10.18;57.34
70521;BME280;58442;52.716;23.560;2023-04-27T07:48:51;101439.24;;;10.32;57.05
70521;BME280;58442;52.716;23.560;2023-04-27T07:50:52;101448.28;;;10.45;56.66
70521;BME280;58442;52.716;23.560;2023-04-27T07:52:54;101449.03;;;10.54;56.28
70521;BME280;58442;52.716;23.560;2023-04-27T07:54:56;101448.96;;;10.62;56.09
70521;BME280;58442;52.716;23.560;2023-04-27T07:57:09;101447.13;;;10.75;55.93
70521;BME280;58442;52.716;23.560;2023-04-27T07:59:13;101448.33;;;10.86;55.50
70521;BME280;58442;52.716;23.560;2023-04-27T08:01:15;101454.15;;;10.97;55.16
70521;BME280;58442;52.716;23.560;2023-04-27T08:03:17;101449.45;;;11.06;55.05
70521;BME280;58442;52.716;23.560;2023-04-27T08:05:21;101455.27;;;11.17;54.85
70521;BME280;58442;52.716;23.560;2023-04-27T08:07:22;101459.84;;;11.25;54.60
70521;BME280;58442;52.716;23.560;2023-04-27T08:09:24;101452.86;;;11.36;54.10
70521;BME280;58442;52.716;23.560;2023-04-27T08:11:26;101455.97;;;11.47;53.93
70521;BME280;58442;52.716;23.560;2023-04-27T08:13:35;101451.19;;;11.44;53.98
70521;BME280;58442;52.716;23.560;2023-04-27T08:15:37;101448.84;;;11.55;53.67
70521;BME280;58442;52.716;23.560;2023-04-27T08:17:39;101444.78;;;11.61;53.51
70521;BME280;58442;52.716;23.560;2023-04-27T08:19:43;101461.71;;;11.78;53.04
70521;BME280;58442;52.716;23.560;2023-04-27T08:21:50;101448.48;;;11.89;52.79
70521;BME280;58442;52.716;23.560;2023-04-27T08:23:51;101458.03;;;12.08;52.31
70521;BME280;58442;52.716;23.560;2023-04-27T08:25:53;101461.56;;;12.20;52.04
70521;BME280;58442;52.716;23.560;2023-04-27T08:27:54;101451.91;;;12.35;51.85
70521;BME280;58442;52.716;23.560;2023-04-27T08:30:06;101451.91;;;12.47;51.50
70521;BME280;58442;52.716;23.560;2023-04-27T08:32:08;101454.27;;;12.61;51.23
70521;BME280;58442;52.716;23.560;2023-04-27T08:34:11;101442.99;;;12.75;50.99
70521;BME280;58442;52.716;23.560;2023-04-27T08:36:12;101446.52;;;12.75;51.02
70521;BME280;58442;52.716;23.560;2023-04-27T08:38:20;101455.20;;;12.53;51.17
70521;BME280;58442;52.716;23.560;2023-04-27T08:40:21;101454.06;;;12.42;51.23
70521;BME280;58442;52.716;23.560;2023-04-27T08:42:24;101457.13;;;12.28;51.53
70521;BME280;58442;52.716;23.560;2023-04-27T08:44:26;101444.77;;;12.30;50.83
70521;BME280;58442;52.716;23.560;2023-04-27T08:46:36;101453.50;;;12.12;51.11
70521;BME280;58442;52.716;23.560;2023-04-27T08:48:38;101456.13;;;12.08;50.98
70521;BME280;58442;52.716;23.560;2023-04-27T08:50:42;101448.41;;;12.22;50.53
70521;BME280;58442;52.716;23.560;2023-04-27T08:52:45;101454.89;;;12.42;50.23
70521;BME280;58442;52.716;23.560;2023-04-27T08:54:49;101449.62;;;12.62;49.64
70521;BME280;58442;52.716;23.560;2023-04-27T08:56:51;101452.67;;;12.72;49.38
70521;BME280;58442;52.716;23.560;2023-04-27T08:58:56;101445.82;;;12.91;49.19
70521;BME280;58442;52.716;23.560;2023-04-27T09:00:58;101443.34;;;13.13;49.03
70521;BME280;58442;52.716;23.560;2023-04-27T09:03:04;101437.09;;;13.13;49.05
70521;BME280;58442;52.716;23.560;2023-04-27T09:05:20;101443.70;;;13.12;48.71
70521;BME280;58442;52.716;23.560;2023-04-27T09:07:18;101440.83;;;12.80;49.04
70521;BME280;58442;52.716;23.560;2023-04-27T09:09:21;101445.55;;;12.96;48.76
70521;BME280;58442;52.716;23.560;2023-04-27T09:11:30;101436.73;;;12.86;49.04
70521;BME280;58442;52.716;23.560;2023-04-27T09:13:37;101438.90;;;12.81;48.92
70521;BME280;58442;52.716;23.560;2023-04-27T09:15:44;101436.02;;;12.90;48.55
70521;BME280;58442;52.716;23.560;2023-04-27T09:17:45;101443.18;;;12.94;48.39
70521;BME280;58442;52.716;23.560;2023-04-27T09:19:47;101439.80;;;12.85;48.70
70521;BME280;58442;52.716;23.560;2023-04-27T09:21:48;101439.01;;;12.84;48.61
70521;BME280;58442;52.716;23.560;2023-04-27T09:23:52;101445.28;;;12.73;48.49
70521;BME280;58442;52.716;23.560;2023-04-27T09:25:55;101443.95;;;12.54;48.63
70521;BME280;58442;52.716;23.560;2023-04-27T09:27:59;101440.74;;;12.77;48.27
70521;BME280;58442;52.716;23.560;2023-04-27T09:30:00;101433.20;;;12.86;47.28
70521;BME280;58442;52.716;23.560;2023-04-27T09:32:15;101439.08;;;13.00;46.96
70521;BME280;58442;52.716;23.560;2023-04-27T09:34:17;101429.13;;;13.20;46.77
70521;BME280;58442;52.716;23.560;2023-04-27T09:36:19;101424.55;;;13.24;46.97
70521;BME280;58442;52.716;23.560;2023-04-27T09:38:22;101422.37;;;13.30;46.59
70521;BME280;58442;52.716;23.560;2023-04-27T09:40:27;101430.45;;;13.54;46.11
70521;BME280;58442;52.716;23.560;2023-04-27T09:42:31;101430.98;;;13.60;45.67
70521;BME280;58442;52.716;23.560;2023-04-27T09:44:34;101431.73;;;13.45;46.03
70521;BME280;58442;52.716;23.560;2023-04-27T09:46:35;101421.54;;;13.57;45.72
70521;BME280;58442;52.716;23.560;2023-04-27T09:48:38;101425.89;;;13.74;45.38
70521;BME280;58442;52.716;23.560;2023-04-27T09:50:41;101426.21;;;13.57;45.83
70521;BME280;58442;52.716;23.560;2023-04-27T09:52:45;101426.20;;;13.41;46.04
70521;BME280;58442;52.716;23.560;2023-04-27T09:54:47;101429.41;;;13.31;45.81
70521;BME280;58442;52.716;23.560;2023-04-27T10:08:02;101426.33;;;12.64;46.22
70521;BME280;58442;52.716;23.560;2023-04-27T10:10:14;101430.21;;;12.51;45.75
70521;BME280;58442;52.716;23.560;2023-04-27T10:12:19;101435.80;;;12.30;46.07
70521;BME280;58442;52.716;23.560;2023-04-27T10:14:22;101435.10;;;12.45;45.85
70521;BME280;58442;52.716;23.560;2023-04-27T10:16:24;101430.64;;;12.65;45.72
70521;BME280;58442;52.716;23.560;2023-04-27T10:18:29;101426.81;;;12.94;45.43
70521;BME280;58442;52.716;23.560;2023-04-27T10:20:35;101420.91;;;12.92;45.59
70521;BME280;58442;52.716;23.560;2023-04-27T10:22:44;101425.91;;;12.90;45.63
70521;BME280;58442;52.716;23.560;2023-04-27T10:24:48;101433.09;;;12.82;45.59
70521;BME280;58442;52.716;23.560;2023-04-27T10:27:03;101437.45;;;12.71;45.75
70521;BME280;58442;52.716;23.560;2023-04-27T10:29:08;101434.04;;;12.62;45.74
70521;BME280;58442;52.716;23.560;2023-04-27T10:31:13;101443.47;;;12.77;45.28
70521;BME280;58442;52.716;23.560;2023-04-27T10:33:16;101429.70;;;12.73;45.43
70521;BME280;58442;52.716;23.560;2023-04-27T10:35:19;101432.41;;;12.85;45.25
70521;BME280;58442;52.716;23.560;2023-04-27T10:39:38;101440.74;;;12.77;44.94
70521;BME280;58442;52.716;23.560;2023-04-27T10:42:03;101445.49;;;12.80;44.95
70521;BME280;58442;52.716;23.560;2023-04-27T10:43:54;101436.58;;;12.95;44.78
70521;BME280;58442;52.716;23.560;2023-04-27T10:46:08;101424.46;;;13.21;44.45
70521;BME280;58442;52.716;23.560;2023-04-27T10:48:13;101432.50;;;13.29;44.29
70521;BME280;58442;52.716;23.560;2023-04-27T10:50:17;101433.25;;;13.58;44.04
70521;BME280;58442;52.716;23.560;2023-04-27T10:52:19;101432.33;;;13.66;43.70
70521;BME280;58442;52.716;23.560;2023-04-27T10:54:25;101423.09;;;13.86;43.49
70521;BME280;58442;52.716;23.560;2023-04-27T10:56:28;101428.27;;;14.07;42.81
70521;BME280;58442;52.716;23.560;2023-04-27T10:58:29;101424.46;;;14.28;42.84